Jacksonville, FL (32205)

3:11 PM EDT on September 04, 2015 (GMT -0400)
Lakeshore | | Change Station
CLOSE
Current Station
Personal Weather Station
Location: Jacksonville, FL
Elevation: 25 ft
Nearby Weather Stations

Elev 25 ft 30.30 °N, 81.73 °W | Updated 42 seconds ago

Mostly Cloudy
Mostly Cloudy
88.4 °F
Feels Like 98 °F
N
0.7
Wind Variable Wind from NE
Gusts 4.6 mph

Today
High -- | Low -- °F
--% Chance of Precip.
Yesterday
High -- | Low -- °F
Precip. -- in
7:05 AM 7:46 PM
Waning Gibbous, 57% visible
Pressure 29.94 in
Visibility 10.0 miles
Clouds Scattered Clouds 4000 ft
Mostly Cloudy 25000 ft
Heat Index 98 °F
Dew Point 74 °F
Humidity 63%
Rainfall 0.00 in
Snow Depth Not available.
UV 6 out of 12
Pollen 8.40 out of 12
Air Quality Not available.
Flu Activity Not available.
METAR KNIP 041853Z 09010KT 10SM SCT040 BKN250 34/23 A2995 RMK AO2 SLP136 CB DSNT SW T2 SET T03390228
Pressure 29.94 in
Visibility 10.0 miles
Clouds Scattered Clouds 4000 ft
Mostly Cloudy 25000 ft
Heat Index 98 °F
Dew Point 74 °F
Humidity 63%
Rainfall 0.00 in
Snow Depth Not available.
UV 6 out of 12
Pollen 8.40 out of 12
Air Quality Not available.
Flu Activity Not available.
METAR KNIP 041853Z 09010KT 10SM SCT040 BKN250 34/23 A2995 RMK AO2 SLP136 CB DSNT SW T2 SET T03390228

10-Day Weather Forecast

×

Almanac

Astronomy

Sep. 04, 2015 Rise Set
Actual Time
Civil Twilight
Nautical Twilight
Astronomical Twilight
Moon
Length of Visible Light
Length of Day
Tomorrow will be .
, % of the Moon is Illuminated

Today's Extremes

State Highs State Lows

Community

WunderPhotos

Upload Photos

1,852,271 photos uploaded!

WunderBlogs® & News

Nearby

Air Quality

  Air Quality AQ Index Pollutant
Not available.

Snow Depth

Station Depth Elevation

Earthquake Activity

City Distance Mag. Time & Date
Minimum magnitude displayed is 2.5.

Coastal Water Temperatures

Place Temperature

Stations

Nearby Weather Stations

Station Location Temp. Windchill Dew Point Humidity Wind Precip. Elev Updated Type